Time;durP1;ratioP1;P1;durP2;ratioP2;P2;SDS_P1;SDS_P2;PMS_P1;PMS_P2;Temp;Humidity;BMP_temperature;BMP_pressure;BME280_temperature;BME280_humidity;BME280_pressure;Samples;Min_cycle;Max_cycle;Signal;HPM_P1;HPM_P2
2022/04/19 00:01:10;;;;;;;6.40;4.78;;;15.30;2.10;;;;;;5056665;28;20111;-59
2022/04/19 00:03:36;;;;;;;5.93;4.53;;;15.30;2.10;;;;;;5073073;28;20117;-60
2022/04/19 00:06:02;;;;;;;7.05;4.70;;;15.20;2.30;;;;;;5050288;28;20055;-59
2022/04/19 00:08:28;;;;;;;7.03;5.43;;;15.20;2.30;;;;;;5052962;28;20056;-59
2022/04/19 00:10:54;;;;;;;6.93;5.18;;;15.10;2.30;;;;;;5035097;28;20075;-60
2022/04/19 00:13:20;;;;;;;7.63;4.95;;;15.20;2.60;;;;;;5054991;28;20350;-60
2022/04/19 00:15:46;;;;;;;8.63;4.95;;;15.20;2.40;;;;;;5069412;28;20028;-60
2022/04/19 00:18:13;;;;;;;5.70;5.10;;;15.10;2.30;;;;;;5054903;28;20470;-60
2022/04/19 00:20:42;;;;;;;5.85;5.00;;;15.10;7.50;;;;;;5071526;28;20039;-60
2022/04/19 00:23:15;;;;;;;6.47;4.78;;;15.10;9.00;;;;;;5031484;28;20540;-60
2022/04/19 00:25:50;;;;;;;7.38;5.38;;;15.10;7.70;;;;;;5032619;28;20063;-60
2022/04/19 00:28:16;;;;;;;5.78;4.85;;;15.10;5.30;;;;;;5034909;28;20036;-60
2022/04/19 00:30:42;;;;;;;7.05;5.18;;;15.00;2.80;;;;;;5050501;28;20127;-61
2022/04/19 00:33:09;;;;;;;5.43;4.72;;;15.10;2.70;;;;;;5056308;28;20112;-60
2022/04/19 00:35:36;;;;;;;6.07;4.70;;;14.90;2.50;;;;;;5052880;28;20048;-60
2022/04/19 00:38:03;;;;;;;7.35;4.82;;;14.90;2.60;;;;;;5051690;28;20057;-60
2022/04/19 00:40:29;;;;;;;8.00;5.53;;;14.90;3.80;;;;;;5052734;28;20017;-60
2022/04/19 00:42:55;;;;;;;6.93;4.65;;;14.90;2.40;;;;;;5069042;28;20393;-60
2022/04/19 00:45:24;;;;;;;9.43;4.40;;;14.90;2.40;;;;;;5066305;28;20148;-60
2022/04/19 00:47:54;;;;;;;5.82;4.45;;;14.90;2.10;;;;;;5051448;28;20469;-61
2022/04/19 00:50:22;;;;;;;7.18;4.88;;;14.90;2.10;;;;;;5052308;28;20029;-60
2022/04/19 00:52:48;;;;;;;5.38;4.35;;;14.90;2.00;;;;;;5067412;28;20028;-60
2022/04/19 00:55:14;;;;;;;6.35;4.47;;;14.90;2.50;;;;;;5072163;28;20451;-60
2022/04/19 00:57:42;;;;;;;7.15;4.90;;;14.80;2.00;;;;;;5064722;28;20037;-60
2022/04/19 01:00:12;;;;;;;5.72;4.35;;;14.70;2.00;;;;;;5065967;28;20025;-60
2022/04/19 01:02:38;;;;;;;7.75;4.40;;;14.70;2.00;;;;;;5051474;28;20037;-60
2022/04/19 01:05:05;;;;;;;4.45;3.90;;;14.70;1.90;;;;;;5052049;28;20401;-60
2022/04/19 01:07:32;;;;;;;4.90;3.90;;;14.70;1.80;;;;;;5063976;28;20482;-60
2022/04/19 01:09:58;;;;;;;6.15;4.10;;;14.70;1.80;;;;;;5072272;28;20136;-60
2022/04/19 01:15:09;;;;;;;7.90;4.33;;;14.70;1.90;;;;;;5052331;28;20036;-61
2022/04/19 01:17:40;;;;;;;6.07;4.40;;;14.70;1.90;;;;;;5019802;28;20025;-60
2022/04/19 01:20:12;;;;;;;7.50;4.45;;;14.60;1.90;;;;;;5032007;28;20108;-60
2022/04/19 01:22:42;;;;;;;7.53;4.70;;;14.70;2.50;;;;;;5045391;28;20088;-61
2022/04/19 01:25:10;;;;;;;6.03;5.05;;;14.70;4.00;;;;;;5042370;28;20154;-61
2022/04/19 01:27:36;;;;;;;7.68;4.47;;;14.70;3.20;;;;;;5063559;28;20021;-61
2022/04/19 01:30:08;;;;;;;12.38;4.78;;;14.60;4.10;;;;;;5071118;28;20103;-60
2022/04/19 01:32:35;;;;;;;4.28;3.88;;;14.80;4.40;;;;;;5057272;28;20047;-60
2022/04/19 01:35:12;;;;;;;5.95;4.50;;;14.70;4.50;;;;;;5050159;28;20033;-61
2022/04/19 01:37:40;;;;;;;4.68;3.70;;;14.70;5.20;;;;;;5044659;28;20409;-61
2022/04/19 01:40:18;;;;;;;5.00;4.18;;;14.70;6.20;;;;;;5071048;28;20115;-61
2022/04/19 01:42:52;;;;;;;4.22;3.83;;;14.50;2.50;;;;;;5056109;28;20039;-60
2022/04/19 01:45:25;;;;;;;7.63;4.03;;;14.50;2.80;;;;;;5053790;28;20545;-61
2022/04/19 01:47:56;;;;;;;5.53;3.58;;;14.50;2.30;;;;;;5068005;28;20089;-61
2022/04/19 01:50:22;;;;;;;6.07;3.83;;;14.60;2.20;;;;;;5071685;28;20516;-60
2022/04/19 01:52:49;;;;;;;4.70;3.67;;;14.50;2.20;;;;;;5064017;28;20042;-60
2022/04/19 01:55:17;;;;;;;5.10;3.53;;;14.50;2.10;;;;;;5054895;28;20084;-61
2022/04/19 01:57:45;;;;;;;4.18;3.70;;;14.40;2.00;;;;;;5052718;28;20402;-61
2022/04/19 02:00:12;;;;;;;5.38;3.95;;;14.40;2.20;;;;;;5033127;28;20041;-60
2022/04/19 02:02:38;;;;;;;3.88;3.50;;;14.40;1.90;;;;;;5057393;28;20493;-61
2022/04/19 02:05:06;;;;;;;5.07;3.92;;;14.40;1.90;;;;;;5074678;28;20037;-61
2022/04/19 02:07:32;;;;;;;4.35;3.17;;;14.30;1.80;;;;;;5061569;28;20029;-61
2022/04/19 02:10:02;;;;;;;5.53;3.67;;;14.40;1.90;;;;;;5054612;28;20051;-61
2022/04/19 02:12:28;;;;;;;4.80;3.63;;;14.40;1.80;;;;;;5062590;28;20047;-61
2022/04/19 02:14:54;;;;;;;7.18;4.43;;;14.40;1.60;;;;;;5066092;28;20420;-60
2022/04/19 02:17:21;;;;;;;4.60;3.70;;;14.30;1.70;;;;;;5035891;28;20029;-61
2022/04/19 02:19:47;;;;;;;8.02;3.65;;;14.30;1.80;;;;;;5054511;28;20021;-60
2022/04/19 02:22:13;;;;;;;5.00;3.40;;;14.30;1.80;;;;;;5040565;28;20469;-60
2022/04/19 02:24:39;;;;;;;3.85;3.45;;;14.30;1.80;;;;;;5064848;28;20393;-61
2022/04/19 02:27:05;;;;;;;4.80;3.47;;;14.40;1.80;;;;;;5052296;28;20033;-60
2022/04/19 02:29:31;;;;;;;5.13;3.45;;;14.40;1.60;;;;;;5052860;28;20113;-61
2022/04/19 02:31:57;;;;;;;3.65;3.28;;;14.30;1.50;;;;;;5055160;28;20179;-62
2022/04/19 02:34:23;;;;;;;5.38;3.30;;;14.30;1.70;;;;;;5053483;28;20548;-60
2022/04/19 02:36:49;;;;;;;4.55;3.50;;;14.20;1.70;;;;;;5053303;28;20029;-61
2022/04/19 02:39:15;;;;;;;5.60;3.83;;;14.20;1.70;;;;;;5054226;28;20032;-61
2022/04/19 02:41:40;;;;;;;7.57;3.70;;;14.20;2.10;;;;;;5055209;28;20045;-61
2022/04/19 02:44:09;;;;;;;4.13;3.38;;;14.20;2.10;;;;;;5073485;28;20472;-61
2022/04/19 02:46:35;;;;;;;4.82;4.10;;;14.20;2.00;;;;;;5070745;28;20491;-60
2022/04/19 02:49:05;;;;;;;8.48;4.05;;;14.20;2.00;;;;;;5052951;28;20033;-61
2022/04/19 02:51:34;;;;;;;5.95;3.70;;;14.20;2.10;;;;;;5053057;28;20067;-60
2022/04/19 02:54:00;;;;;;;8.10;4.28;;;14.20;2.90;;;;;;5073898;28;20036;-60
2022/04/19 02:56:26;;;;;;;7.28;4.43;;;14.20;2.60;;;;;;5071103;28;20433;-61
2022/04/19 02:58:52;;;;;;;4.80;3.80;;;14.20;2.60;;;;;;5035716;28;20029;-60
2022/04/19 03:01:18;;;;;;;8.27;4.47;;;14.10;3.00;;;;;;5065938;28;20035;-60
2022/04/19 03:03:44;;;;;;;4.95;4.40;;;14.20;2.80;;;;;;5052629;28;20017;-61
2022/04/19 03:06:10;;;;;;;6.53;4.35;;;14.10;3.20;;;;;;5053762;28;20037;-61
2022/04/19 03:08:36;;;;;;;4.95;4.13;;;14.10;3.20;;;;;;5069795;28;20032;-61
2022/04/19 03:11:05;;;;;;;4.65;3.70;;;14.10;3.10;;;;;;5073852;28;20032;-60
2022/04/19 03:13:33;;;;;;;4.63;4.20;;;14.10;3.30;;;;;;5071900;28;20075;-60
2022/04/19 03:15:59;;;;;;;6.47;5.05;;;14.10;3.90;;;;;;5048284;28;20029;-60
2022/04/19 03:18:25;;;;;;;5.13;4.40;;;14.10;3.50;;;;;;5051790;28;20024;-60
2022/04/19 03:20:50;;;;;;;5.40;3.63;;;14.10;3.60;;;;;;5053408;28;20048;-60
2022/04/19 03:28:47;;;;;;;5.13;4.13;;;14.10;3.50;;;;;;5053066;28;20083;-60
2022/04/19 03:31:14;;;;;;;5.32;4.10;;;14.00;3.60;;;;;;5053262;28;20333;-60
2022/04/19 03:33:40;;;;;;;5.78;4.10;;;14.20;3.50;;;;;;5036682;28;20033;-61
2022/04/19 03:36:08;;;;;;;6.15;4.72;;;14.10;3.60;;;;;;5033188;28;20048;-61
2022/04/19 03:38:36;;;;;;;7.38;4.88;;;14.00;3.60;;;;;;5049581;28;20020;-60
2022/04/19 03:41:03;;;;;;;7.00;4.40;;;14.00;3.70;;;;;;5053967;28;20037;-61
2022/04/19 03:43:32;;;;;;;9.18;4.60;;;14.00;3.70;;;;;;5067563;28;20036;-61
2022/04/19 03:45:58;;;;;;;8.63;4.95;;;14.00;3.70;;;;;;5054885;28;20390;-60
2022/04/19 03:48:24;;;;;;;7.45;4.63;;;14.00;4.10;;;;;;5066646;28;20039;-61
2022/04/19 03:50:51;;;;;;;7.82;4.57;;;13.90;3.80;;;;;;5073601;28;20032;-61
2022/04/19 03:53:17;;;;;;;6.50;4.78;;;14.00;3.70;;;;;;5058845;28;20108;-61
2022/04/19 03:55:42;;;;;;;8.63;4.68;;;14.00;3.70;;;;;;5053415;28;20132;-60
2022/04/19 03:58:08;;;;;;;8.18;4.03;;;14.00;3.60;;;;;;5063995;28;20094;-61
2022/04/19 04:00:34;;;;;;;6.63;4.47;;;13.90;4.10;;;;;;5073379;28;20446;-61
2022/04/19 04:03:01;;;;;;;5.55;4.50;;;13.90;4.00;;;;;;5058859;28;20047;-61
2022/04/19 04:05:27;;;;;;;7.60;4.78;;;13.90;4.30;;;;;;5053201;28;20091;-61
2022/04/19 04:07:56;;;;;;;7.28;4.57;;;13.90;4.40;;;;;;5061091;28;20020;-61
2022/04/19 04:10:22;;;;;;;5.80;4.68;;;13.90;4.30;;;;;;5071643;28;20334;-61
2022/04/19 04:12:48;;;;;;;8.95;5.22;;;13.80;4.30;;;;;;5071028;28;20454;-61
2022/04/19 04:15:14;;;;;;;7.97;4.95;;;13.90;3.90;;;;;;5055214;28;20078;-61
2022/04/19 04:17:40;;;;;;;7.22;4.95;;;13.80;4.10;;;;;;5052055;28;20033;-61
2022/04/19 04:20:06;;;;;;;6.85;5.03;;;13.90;4.10;;;;;;5034261;28;20032;-60
2022/04/19 04:22:32;;;;;;;6.10;5.00;;;13.80;4.20;;;;;;5057440;28;20028;-60
2022/04/19 04:24:57;;;;;;;7.90;5.45;;;13.80;4.40;;;;;;5073072;28;20128;-60
2022/04/19 04:27:23;;;;;;;8.30;5.40;;;13.80;4.40;;;;;;5069207;28;20446;-60
2022/04/19 04:29:49;;;;;;;5.80;5.03;;;13.80;4.40;;;;;;5032949;28;20030;-61
2022/04/19 04:32:15;;;;;;;4.95;4.40;;;13.80;4.20;;;;;;5035623;28;20032;-60
2022/04/19 04:34:41;;;;;;;6.82;5.00;;;13.90;4.10;;;;;;5051886;28;20398;-60
2022/04/19 04:37:06;;;;;;;9.85;4.82;;;13.80;4.50;;;;;;5052382;28;20033;-60
2022/04/19 04:39:32;;;;;;;6.57;5.00;;;13.80;4.50;;;;;;5072564;28;20039;-60
2022/04/19 04:41:57;;;;;;;10.95;5.47;;;13.80;4.80;;;;;;5051042;28;20111;-60
2022/04/19 04:44:23;;;;;;;7.53;4.95;;;13.80;4.80;;;;;;5072237;28;20036;-60
2022/04/19 04:49:35;;;;;;;8.23;5.20;;;13.90;5.20;;;;;;5033008;28;20045;-60
2022/04/19 04:52:05;;;;;;;10.30;5.20;;;13.80;5.50;;;;;;5048288;28;20098;-60
2022/04/19 04:54:31;;;;;;;6.63;5.20;;;13.80;5.20;;;;;;5061523;28;20033;-60
2022/04/19 04:56:56;;;;;;;7.00;5.00;;;13.80;5.50;;;;;;5050076;28;20102;-60
2022/04/19 04:59:22;;;;;;;8.15;5.05;;;13.80;5.20;;;;;;5052042;28;20115;-60
2022/04/19 05:01:48;;;;;;;8.95;4.80;;;13.80;5.10;;;;;;5068130;28;20012;-60
2022/04/19 05:04:13;;;;;;;9.60;5.50;;;13.80;5.30;;;;;;5052005;28;20052;-60
2022/04/19 05:06:40;;;;;;;11.75;6.05;;;13.80;5.40;;;;;;5045137;28;20035;-60
2022/04/19 05:09:05;;;;;;;13.05;5.55;;;13.80;5.40;;;;;;5069909;28;20027;-60
2022/04/19 05:11:31;;;;;;;10.23;5.90;;;13.80;5.60;;;;;;5065611;28;20025;-60
2022/04/19 05:13:57;;;;;;;9.80;5.28;;;13.70;5.50;;;;;;5069515;28;20028;-60
2022/04/19 05:16:23;;;;;;;9.45;5.75;;;13.80;5.50;;;;;;5072250;28;20071;-60
2022/04/19 05:18:49;;;;;;;12.63;6.20;;;13.80;5.70;;;;;;5031922;28;20021;-61
2022/04/19 05:21:14;;;;;;;8.40;5.72;;;13.60;5.60;;;;;;5049951;28;20043;-60
2022/04/19 05:23:40;;;;;;;9.30;5.95;;;13.80;5.60;;;;;;5050988;28;20021;-60
2022/04/19 05:26:05;;;;;;;7.38;5.25;;;13.80;5.70;;;;;;5033899;28;20556;-53
2022/04/19 05:28:31;;;;;;;9.88;6.32;;;13.80;5.80;;;;;;5062349;28;20393;-57
2022/04/19 05:30:57;;;;;;;12.07;6.07;;;13.50;6.10;;;;;;5072332;28;20047;-56
2022/04/19 05:33:23;;;;;;;8.77;6.00;;;13.40;6.70;;;;;;5041848;28;20115;-57
2022/04/19 05:35:48;;;;;;;10.18;5.93;;;13.50;6.10;;;;;;5052049;28;20105;-57
2022/04/19 05:38:14;;;;;;;11.68;6.32;;;13.50;6.10;;;;;;5063003;28;20423;-54
2022/04/19 05:40:40;;;;;;;10.07;5.40;;;13.50;6.40;;;;;;5067095;28;20108;-49
2022/04/19 05:43:06;;;;;;;8.65;6.45;;;13.50;6.40;;;;;;5044351;28;20029;-57
2022/04/19 05:45:32;;;;;;;10.50;6.32;;;13.50;6.40;;;;;;5051725;28;20041;-55
2022/04/19 05:47:58;;;;;;;14.98;6.53;;;13.70;6.30;;;;;;5049399;28;20075;-54
2022/04/19 05:50:24;;;;;;;13.32;7.15;;;13.70;6.30;;;;;;5051626;28;20033;-53
2022/04/19 05:52:50;;;;;;;21.08;8.75;;;13.80;6.30;;;;;;5056035;28;20531;-58
2022/04/19 05:55:16;;;;;;;33.45;8.80;;;13.80;6.30;;;;;;5071361;28;20044;-48
2022/04/19 05:57:41;;;;;;;38.15;8.98;;;13.90;6.60;;;;;;5048260;28;20040;-49
2022/04/19 06:00:08;;;;;;;71.28;13.88;;;14.00;6.60;;;;;;5051441;28;20206;-43
2022/04/19 06:05:18;;;;;;;73.30;13.07;;;14.00;7.20;;;;;;5061718;28;20052;-59
2022/04/19 06:07:47;;;;;;;14.13;7.65;;;14.10;6.90;;;;;;5044452;28;20032;-54
2022/04/19 06:10:14;;;;;;;16.90;7.53;;;14.10;7.10;;;;;;5065789;28;20107;-55
2022/04/19 06:12:41;;;;;;;58.35;12.65;;;14.00;6.90;;;;;;5051073;28;20048;-63
2022/04/19 06:15:07;;;;;;;32.08;9.85;;;14.10;6.90;;;;;;5071293;28;20028;-59
2022/04/19 06:17:35;;;;;;;53.33;11.25;;;14.00;7.30;;;;;;5028712;28;20029;-59
2022/04/19 06:20:01;;;;;;;58.55;11.00;;;13.90;7.50;;;;;;5038395;28;20479;-65
2022/04/19 06:22:27;;;;;;;35.05;9.45;;;13.90;7.80;;;;;;5028007;28;20025;-65
2022/04/19 06:24:55;;;;;;;12.13;6.68;;;13.90;7.80;;;;;;5059961;28;20037;-65
2022/04/19 06:27:21;;;;;;;15.02;6.10;;;13.90;7.30;;;;;;5049096;28;20021;-65
2022/04/19 06:29:47;;;;;;;8.40;5.97;;;14.00;7.20;;;;;;5050740;28;20033;-64
2022/04/19 06:32:13;;;;;;;12.52;6.40;;;13.90;7.00;;;;;;5019882;28;20032;-57
2022/04/19 06:34:39;;;;;;;39.75;10.43;;;14.00;7.20;;;;;;5053345;28;20039;-58
2022/04/19 06:37:06;;;;;;;346.70;47.00;;;14.00;6.70;;;;;;5052144;28;20025;-59
2022/04/19 06:39:31;;;;;;;22.98;8.18;;;14.00;6.70;;;;;;5060514;28;20036;-60
2022/04/19 06:41:57;;;;;;;11.40;6.70;;;14.10;6.30;;;;;;5052195;28;20028;-46
2022/04/19 06:44:23;;;;;;;26.45;7.85;;;14.00;6.20;;;;;;5042915;28;20479;-73
2022/04/19 06:46:49;;;;;;;45.80;10.60;;;14.20;5.70;;;;;;5048209;28;20128;-58
2022/04/19 06:49:15;;;;;;;55.67;11.98;;;14.20;5.10;;;;;;5051541;28;20505;-51
2022/04/19 06:51:41;;;;;;;126.43;19.38;;;14.30;5.10;;;;;;5047074;28;20039;-62
2022/04/19 06:54:11;;;;;;;25.33;7.63;;;14.40;4.80;;;;;;5034128;28;20044;-57
2022/04/19 06:56:36;;;;;;;10.82;6.60;;;14.40;4.50;;;;;;5044124;28;20141;-51
2022/04/19 06:59:02;;;;;;;44.58;9.95;;;14.50;4.30;;;;;;5058821;28;20120;-49
2022/04/19 07:01:29;;;;;;;10.35;6.72;;;14.60;4.30;;;;;;5053269;28;20028;-50
2022/04/19 07:03:55;;;;;;;22.40;8.07;;;14.50;3.00;;;;;;5042658;28;20054;-58
2022/04/19 07:06:21;;;;;;;60.10;13.13;;;14.50;3.20;;;;;;5042405;28;20136;-44
2022/04/19 07:08:47;;;;;;;90.00;14.82;;;14.60;3.50;;;;;;5049881;28;20060;-51
2022/04/19 07:11:15;;;;;;;11.02;6.20;;;14.70;3.60;;;;;;5046636;28;20111;-64
2022/04/19 07:13:44;;;;;;;11.45;5.70;;;14.80;3.00;;;;;;5043132;28;20033;-53
2022/04/19 07:16:10;;;;;;;17.10;5.70;;;14.90;2.30;;;;;;5049505;28;20070;-50
2022/04/19 07:18:36;;;;;;;20.83;6.85;;;14.90;1.80;;;;;;5053579;28;20049;-48
2022/04/19 07:26:40;;;;;;;30.00;9.17;;;14.90;3.60;;;;;;5046959;28;20458;-49
2022/04/19 07:29:10;;;;;;;21.98;8.95;;;15.00;4.20;;;;;;5053546;28;20074;-47
2022/04/19 07:39:20;;;;;;;154.10;27.30;;;15.00;3.70;;;;;;5018929;28;20060;-51
2022/04/19 07:41:47;;;;;;;8.68;5.18;;;15.20;3.00;;;;;;5032140;28;20120;-48
2022/04/19 07:44:15;;;;;;;17.65;6.57;;;15.20;1.70;;;;;;5032649;28;20140;-61
2022/04/19 07:46:42;;;;;;;10.73;5.80;;;15.20;1.10;;;;;;5015224;28;20030;-57
2022/04/19 07:54:45;;;;;;;18.20;7.03;;;15.30;1.00;;;;;;6029376;22;20369;-51
2022/04/19 07:57:10;;;;;;;21.83;12.07;;;15.30;1.00;;;;;;4974440;28;20191;-55
2022/04/19 07:59:36;;;;;;;57.38;13.45;;;15.40;1.00;;;;;;4989369;28;20109;-49
2022/04/19 08:02:02;;;;;;;21.98;7.38;;;15.30;1.00;;;;;;4974424;28;20068;-60
2022/04/19 08:04:28;;;;;;;13.10;7.60;;;15.30;1.00;;;;;;4974540;28;20373;-47
2022/04/19 08:30:10;;;;;;;10.68;6.43;;;15.70;1.00;;;;;;5000740;28;20489;-47
2022/04/19 08:32:36;;;;;;;32.50;12.00;;;15.80;1.00;;;;;;4992604;28;20034;-52
2022/04/19 08:35:02;;;;;;;13.15;7.40;;;15.80;2.40;;;;;;5010593;28;20065;-57
2022/04/19 08:37:32;;;;;;;28.35;9.00;;;15.80;1.00;;;;;;5011021;28;20040;-54
2022/04/19 11:32:02;;;;;;;58.88;35.67;;;19.90;1.00;;;;;;5560652;23;20237;-63
2022/04/19 11:34:27;;;;;;;78.05;68.22;;;20.20;1.00;;;;;;4936335;29;20071;-64
2022/04/19 11:37:00;;;;;;;39.00;29.90;;;20.30;1.00;;;;;;4936390;29;20024;-60
2022/04/19 11:47:59;;;;;;;49.40;40.85;;;21.00;19.20;;;;;;4936225;29;20042;-63
2022/04/19 11:50:33;;;;;;;27.88;19.60;;;21.20;1.00;;;;;;4931305;29;20114;-63
2022/04/19 11:53:00;;;;;;;39.45;30.95;;;21.30;4.10;;;;;;4930076;29;20469;-63
2022/04/19 11:55:27;;;;;;;18.35;14.48;;;21.40;1.00;;;;;;4916505;29;20365;-63
2022/04/19 11:58:07;;;;;;;12.50;10.75;;;21.50;1.00;;;;;;4935238;29;20020;-62
2022/04/19 12:00:34;;;;;;;15.75;14.25;;;21.50;1.00;;;;;;4918521;29;20043;-63
2022/04/19 12:03:03;;;;;;;13.32;11.30;;;22.10;1.00;;;;;;4936071;29;20069;-63
2022/04/19 12:05:30;;;;;;;17.70;11.38;;;22.60;7.10;;;;;;4935284;29;20358;-62
2022/04/19 12:07:56;;;;;;;17.15;14.82;;;23.10;1.00;;;;;;4935866;29;20023;-63
2022/04/19 12:10:23;;;;;;;21.90;19.58;;;24.40;1.00;;;;;;4935242;29;20122;-62
2022/04/19 12:12:52;;;;;;;18.17;12.30;;;24.80;1.00;;;;;;4935839;29;20444;-62
2022/04/19 12:15:38;;;;;;;30.60;27.60;;;25.10;1.00;;;;;;4933860;29;20083;-62
2022/04/19 12:18:05;;;;;;;17.45;15.27;;;25.70;1.00;;;;;;4916787;29;20028;-63
2022/04/19 12:20:43;;;;;;;23.35;20.60;;;26.00;1.00;;;;;;4927390;29;20553;-63
2022/04/19 12:23:19;;;;;;;17.38;15.77;;;26.20;1.00;;;;;;4934900;29;20031;-63
2022/04/19 12:26:04;;;;;;;21.65;19.67;;;27.40;1.00;;;;;;4935126;29;20392;-63
2022/04/19 12:28:44;;;;;;;16.55;15.00;;;27.80;1.00;;;;;;4935563;29;20027;-63
2022/04/19 12:31:34;;;;;;;21.00;19.15;;;28.50;1.00;;;;;;4934928;29;20098;-63
2022/04/19 12:34:01;;;;;;;14.50;13.10;;;30.80;1.00;;;;;;4935565;29;20047;-63
2022/04/19 12:36:28;;;;;;;16.10;14.45;;;32.20;1.00;;;;;;4917766;29;20082;-63
2022/04/19 12:39:04;;;;;;;21.35;19.27;;;32.80;1.80;;;;;;4935498;29;20043;-63
2022/04/19 12:41:49;;;;;;;12.63;10.52;;;34.70;1.00;;;;;;4934730;29;20398;-63
2022/04/19 12:44:17;;;;;;;28.23;25.90;;;36.00;1.00;;;;;;4935321;29;20055;-63
2022/04/19 12:46:48;;;;;;;17.95;16.23;;;35.80;1.00;;;;;;4934718;29;20091;-62
2022/04/19 12:49:27;;;;;;;20.20;18.30;;;34.00;1.00;;;;;;4934589;29;20064;-63
2022/04/19 12:52:07;;;;;;;13.10;11.43;;;32.70;1.00;;;;;;4934464;29;20036;-61
2022/04/19 12:54:34;;;;;;;13.38;11.63;;;32.10;1.00;;;;;;4934603;29;20143;-61
2022/04/19 12:57:02;;;;;;;12.82;11.63;;;32.20;1.00;;;;;;4916351;29;20024;-61
2022/04/19 12:59:29;;;;;;;20.00;18.02;;;32.10;1.00;;;;;;4916036;29;20028;-61
2022/04/19 13:01:56;;;;;;;18.83;17.15;;;33.00;1.00;;;;;;4916694;29;20092;-62
2022/04/19 13:04:21;;;;;;;13.52;12.10;;;33.20;1.00;;;;;;4935040;29;20066;-62
2022/04/19 13:12:18;;;;;;;14.23;12.38;;;35.10;1.00;;;;;;4915904;29;20490;-61
2022/04/19 13:14:50;;;;;;;12.35;11.18;;;38.20;1.00;;;;;;4916379;29;20119;-60
2022/04/19 13:17:16;;;;;;;14.27;12.98;;;;;;;;;;4934879;29;20032;-61
2022/04/19 13:19:43;;;;;;;11.80;10.55;;;41.40;1.00;;;;;;4933318;29;20031;-59
2022/04/19 13:22:09;;;;;;;15.32;13.90;;;;;;;;;;4915645;29;20032;-60
2022/04/19 13:24:36;;;;;;;12.05;10.85;;;;;;;;;;4915667;29;20076;-60
2022/04/19 13:27:03;;;;;;;10.63;9.55;;;41.10;1.00;;;;;;4933893;29;20090;-60
2022/04/19 13:29:29;;;;;;;11.88;10.65;;;42.70;1.00;;;;;;4934790;29;20028;-60
2022/04/19 13:31:56;;;;;;;11.00;9.82;;;;;;;;;;4933715;29;20385;-60
2022/04/19 13:34:22;;;;;;;463.98;64.10;;;43.20;1.00;;;;;;4934734;29;20107;-59
2022/04/19 13:36:48;;;;;;;19.83;10.07;;;42.50;1.00;;;;;;4934037;29;20084;-56
2022/04/19 13:39:14;;;;;;;14.70;10.40;;;42.40;1.00;;;;;;4917247;29;20046;-58
2022/04/19 13:41:41;;;;;;;13.73;10.70;;;41.60;1.00;;;;;;4933627;29;20465;-58
2022/04/19 13:44:13;;;;;;;21.67;11.35;;;40.90;1.00;;;;;;4934681;29;20473;-58
2022/04/19 13:46:40;;;;;;;12.88;9.48;;;40.60;1.00;;;;;;4916654;29;20135;-58
2022/04/19 13:49:06;;;;;;;12.77;9.52;;;40.50;1.00;;;;;;4934797;29;20032;-59
2022/04/19 13:51:33;;;;;;;14.60;10.23;;;40.00;1.00;;;;;;4933911;29;20035;-59
2022/04/19 13:53:59;;;;;;;12.55;11.23;;;38.10;1.00;;;;;;4934409;29;20465;-60
2022/04/19 13:56:25;;;;;;;10.75;9.68;;;;;;;;;;4933901;29;20051;-59
2022/04/19 13:58:50;;;;;;;10.43;9.27;;;36.00;1.00;;;;;;4934365;29;20059;-58
2022/04/19 14:01:17;;;;;;;28.65;10.32;;;;;;;;;;4933610;29;20063;-60
2022/04/19 14:03:43;;;;;;;14.73;8.65;;;;;;;;;;4934479;29;20031;-59
2022/04/19 14:06:09;;;;;;;11.52;9.02;;;;;;;;;;4933805;29;20576;-56
2022/04/19 14:08:34;;;;;;;11.40;7.43;;;35.00;1.00;;;;;;4933927;29;20030;-59
2022/04/19 14:11:00;;;;;;;13.57;8.68;;;33.00;1.00;;;;;;4933866;29;20050;-59
2022/04/19 14:13:28;;;;;;;13.55;8.73;;;31.80;1.00;;;;;;4934481;29;20347;-60
2022/04/19 14:15:54;;;;;;;11.63;7.97;;;31.10;1.00;;;;;;4933774;29;20079;-60
2022/04/19 14:18:22;;;;;;;8.93;7.60;;;30.40;1.00;;;;;;4934356;29;20032;-60
2022/04/19 14:20:48;;;;;;;9.13;7.25;;;30.00;1.00;;;;;;4933816;29;20046;-59
2022/04/19 14:23:15;;;;;;;10.00;7.70;;;29.80;1.00;;;;;;4934366;29;20038;-58
2022/04/19 14:25:40;;;;;;;8.35;6.70;;;29.70;1.00;;;;;;4933529;29;20060;-59
2022/04/19 14:28:06;;;;;;;7.80;6.13;;;29.40;1.00;;;;;;4934154;29;20433;-59
2022/04/19 14:33:16;;;;;;;6.03;5.43;;;29.60;1.00;;;;;;4934107;29;20509;-58
2022/04/19 14:35:42;;;;;;;8.07;6.20;;;29.60;1.00;;;;;;4932927;29;20031;-59
2022/04/19 14:38:08;;;;;;;9.13;5.38;;;30.00;1.00;;;;;;4932745;29;20012;-59
2022/04/19 14:40:33;;;;;;;7.20;5.40;;;30.30;1.00;;;;;;4933411;29;20413;-59
2022/04/19 14:42:59;;;;;;;6.07;5.40;;;31.40;1.00;;;;;;4932826;29;20023;-59
2022/04/19 14:45:25;;;;;;;8.73;5.78;;;;;;;;;;4933323;29;20477;-59
2022/04/19 14:47:50;;;;;;;6.68;5.45;;;32.70;1.00;;;;;;4917098;29;20024;-57
2022/04/19 14:50:16;;;;;;;9.88;5.13;;;34.20;1.00;;;;;;4932828;29;20090;-59
2022/04/19 14:52:42;;;;;;;6.75;4.90;;;36.50;1.00;;;;;;4935308;29;20036;-59
2022/04/19 14:55:09;;;;;;;9.38;4.78;;;;;;;;;;4926972;29;20036;-57
2022/04/19 14:57:34;;;;;;;10.48;4.15;;;37.30;1.00;;;;;;4937200;29;20030;-55
2022/04/19 15:00:00;;;;;;;6.40;3.65;;;36.90;1.00;;;;;;4937256;29;20110;-59
2022/04/19 15:02:26;;;;;;;10.43;6.50;;;36.50;1.00;;;;;;4929392;29;20067;-50
2022/04/19 15:04:52;;;;;;;9.73;5.68;;;36.70;1.00;;;;;;4932535;29;20063;-59
2022/04/19 15:07:17;;;;;;;4.40;3.67;;;35.60;1.00;;;;;;4936231;29;20067;-65
2022/04/19 15:09:44;;;;;;;7.68;5.88;;;33.00;1.00;;;;;;4937130;29;20034;-65
2022/04/19 15:12:11;;;;;;;6.60;4.93;;;32.80;1.00;;;;;;4936434;29;20067;-65
2022/04/19 15:14:38;;;;;;;12.63;4.25;;;32.90;1.00;;;;;;4937293;29;20024;-65
2022/04/19 15:17:04;;;;;;;5.43;3.80;;;;;;;;;;4919222;29;20054;-66
2022/04/19 15:19:30;;;;;;;9.07;4.07;;;32.50;1.00;;;;;;4937218;29;20405;-66
2022/04/19 15:21:56;;;;;;;7.65;3.88;;;33.70;1.00;;;;;;4919058;29;20067;-66
2022/04/19 15:24:22;;;;;;;8.25;3.85;;;;;;;;;;4919573;29;20115;-65
2022/04/19 15:26:48;;;;;;;5.57;5.05;;;32.80;1.00;;;;;;4936243;29;20032;-64
2022/04/19 15:29:15;;;;;;;5.43;3.63;;;32.40;1.00;;;;;;4936684;29;20028;-66
2022/04/19 15:31:41;;;;;;;4.90;3.20;;;31.20;1.00;;;;;;4935636;29;20097;-65
2022/04/19 15:34:06;;;;;;;5.78;3.50;;;28.90;1.00;;;;;;4935419;29;20032;-64
2022/04/19 15:36:32;;;;;;;5.68;3.53;;;28.90;1.00;;;;;;4932138;29;20035;-65
2022/04/19 15:38:58;;;;;;;5.40;3.70;;;28.60;1.00;;;;;;4936712;29;20068;-65
2022/04/19 15:41:25;;;;;;;6.40;3.50;;;28.40;1.00;;;;;;4934654;29;20098;-63
2022/04/19 15:43:51;;;;;;;45.15;7.45;;;28.20;1.00;;;;;;4935977;29;20047;-64
2022/04/19 15:46:17;;;;;;;132.48;16.70;;;28.40;1.00;;;;;;4933091;29;20039;-60
2022/04/19 15:48:42;;;;;;;7.75;3.63;;;28.60;1.00;;;;;;4936357;29;20473;-61
2022/04/19 15:51:09;;;;;;;8.63;3.45;;;28.60;1.00;;;;;;4935691;29;20151;-60
2022/04/19 15:53:34;;;;;;;5.40;3.30;;;28.60;1.00;;;;;;4936384;29;20468;-60
2022/04/19 15:56:01;;;;;;;4.70;2.80;;;28.10;1.00;;;;;;4935738;29;20028;-60
2022/04/19 15:58:27;;;;;;;4.57;2.50;;;27.70;1.00;;;;;;4919562;29;20039;-61
2022/04/19 16:00:54;;;;;;;10.95;3.13;;;27.50;1.00;;;;;;4935742;29;20512;-60
2022/04/19 16:03:21;;;;;;;7.78;3.38;;;27.40;1.00;;;;;;4934621;29;20035;-61
2022/04/19 16:05:47;;;;;;;6.70;3.25;;;27.10;1.00;;;;;;4935477;29;20036;-61
2022/04/19 16:08:13;;;;;;;5.13;2.95;;;;;;;;;;4936184;29;20091;-61
2022/04/19 16:10:39;;;;;;;8.02;3.67;;;26.30;5.40;;;;;;4934586;29;20023;-61
2022/04/19 16:13:05;;;;;;;9.38;3.17;;;;;;;;;;4936157;29;20042;-60
2022/04/19 16:15:31;;;;;;;8.43;4.40;;;25.20;7.10;;;;;;4935555;29;20086;-60
2022/04/19 16:23:20;;;;;;;;;;;24.70;1.00;;;;;;4935898;29;20038;-60
2022/04/19 16:23:42;;;;;;;8.48;3.03;;;24.70;1.00;;;;;;4931844;29;19910;-60
2022/04/19 16:26:12;;;;;;;5.97;3.40;;;24.60;9.20;;;;;;4941144;29;20051;-61
2022/04/19 16:28:41;;;;;;;9.77;3.63;;;24.40;1.00;;;;;;4931740;29;20019;-62
2022/04/19 16:31:08;;;;;;;7.47;3.10;;;24.40;1.00;;;;;;4931422;29;20023;-65
2022/04/19 16:33:39;;;;;;;8.18;3.15;;;24.10;14.30;;;;;;4935464;29;20163;-60
2022/04/19 16:36:05;;;;;;;8.07;2.65;;;24.00;2.60;;;;;;4934340;29;20079;-60
2022/04/19 16:38:31;;;;;;;11.63;3.88;;;;;;;;;;4928964;29;20095;-56
2022/04/19 16:40:57;;;;;;;6.15;3.25;;;;;;;;;;4926533;29;20065;-58
2022/04/19 16:43:23;;;;;;;9.38;3.45;;;23.60;1.00;;;;;;4927860;29;20127;-52
2022/04/19 16:45:49;;;;;;;4.50;2.63;;;23.30;1.00;;;;;;4929451;29;20545;-57
2022/04/19 16:58:30;;;;;;;7.93;2.85;;;23.00;14.90;;;;;;4928810;29;20099;-53
2022/04/19 17:00:55;;;;;;;6.53;3.60;;;22.80;14.00;;;;;;4928729;29;20044;-51
2022/04/19 17:06:05;;;;;;;11.60;3.90;;;22.60;24.90;;;;;;4932723;29;20046;-61
2022/04/19 17:08:31;;;;;;;19.65;4.07;;;22.50;30.60;;;;;;4933058;29;20472;-62
2022/04/19 17:10:57;;;;;;;23.65;4.13;;;22.00;21.20;;;;;;4931959;29;20052;-66
2022/04/19 17:13:23;;;;;;;6.72;3.40;;;22.00;13.00;;;;;;4929692;29;20035;-63
2022/04/19 17:15:49;;;;;;;9.93;2.83;;;22.30;12.00;;;;;;4929238;29;20174;-63